Time;durP1;ratioP1;P1;durP2;ratioP2;P2;SDS_P1;SDS_P2;PMS_P1;PMS_P2;Temp;Humidity;BMP_temperature;BMP_pressure;BME280_temperature;BME280_humidity;BME280_pressure;Samples;Min_cycle;Max_cycle;Signal;HPM_P1;HPM_P2
2021/04/19 00:00:52;;;;;;;21.92;9.02;;;;;;;;;;5092986;28;20131;-87
2021/04/19 00:03:19;;;;;;;17.40;7.93;;;;;;;;;;5094249;28;20393;-86
2021/04/19 00:05:45;;;;;;;18.85;8.15;;;;;;;;;;5092899;28;20529;-87
2021/04/19 00:08:11;;;;;;;19.42;8.45;;;;;;;;;;5093195;28;20028;-87
2021/04/19 00:10:38;;;;;;;18.95;8.35;;;;;;;;;;5093002;28;20053;-87
2021/04/19 00:13:04;;;;;;;20.83;8.15;;;;;;;;;;5094132;28;20028;-88
2021/04/19 00:15:30;;;;;;;22.48;8.68;;;;;;;;;;5092950;28;20141;-87
2021/04/19 00:17:57;;;;;;;18.10;7.38;;;;;;;;;;5093982;28;20130;-88
2021/04/19 00:20:24;;;;;;;19.13;8.25;;;;;;;;;;5094005;28;20069;-87
2021/04/19 00:22:50;;;;;;;19.92;8.25;;;;;;;;;;5092593;28;20475;-87
2021/04/19 00:25:16;;;;;;;17.55;8.13;;;;;;;;;;5092048;28;20056;-86
2021/04/19 00:27:42;;;;;;;28.95;9.20;;;;;;;;;;5075976;28;20020;-87
2021/04/19 00:30:09;;;;;;;19.52;8.45;;;;;;;;;;5092506;28;20039;-87
2021/04/19 00:32:35;;;;;;;19.42;8.95;;;;;;;;;;5092615;28;20107;-87
2021/04/19 00:35:02;;;;;;;25.42;9.23;;;;;;;;;;5092465;28;20498;-87
2021/04/19 00:37:28;;;;;;;18.85;8.15;;;;;;;;;;5092393;28;20131;-87
2021/04/19 00:39:54;;;;;;;19.60;7.97;;;;;;;;;;5092334;28;20074;-88
2021/04/19 00:42:21;;;;;;;21.42;9.27;;;;;;;;;;5094377;28;20028;-88
2021/04/19 00:44:47;;;;;;;16.38;8.27;;;;;;;;;;5093645;28;20089;-88
2021/04/19 00:47:13;;;;;;;22.48;8.82;;;;;;;;;;5092415;28;20071;-88
2021/04/19 00:49:40;;;;;;;18.92;8.85;;;;;;;;;;5092602;28;20025;-87
2021/04/19 00:52:07;;;;;;;21.08;9.18;;;;;;;;;;5092379;28;20024;-87
2021/04/19 00:54:33;;;;;;;20.20;9.20;;;;;;;;;;5092523;28;20043;-88
2021/04/19 00:57:00;;;;;;;22.13;8.88;;;;;;;;;;5092589;28;20033;-88
2021/04/19 00:59:26;;;;;;;16.83;8.23;;;;;;;;;;5092535;28;20027;-88
2021/04/19 01:01:53;;;;;;;21.45;8.48;;;;;;;;;;5092200;28;20063;-88
2021/04/19 01:04:19;;;;;;;22.75;10.00;;;;;;;;;;5092989;28;20035;-88
2021/04/19 01:06:45;;;;;;;20.77;9.50;;;;;;;;;;5092537;28;20031;-89
2021/04/19 01:09:11;;;;;;;20.00;8.75;;;;;;;;;;5092430;28;20420;-89
2021/04/19 01:11:37;;;;;;;20.70;8.68;;;;;;;;;;5092512;28;20032;-87
2021/04/19 01:14:04;;;;;;;22.95;9.43;;;;;;;;;;5092186;28;20476;-87
2021/04/19 01:16:30;;;;;;;23.40;9.05;;;;;;;;;;5093629;28;20032;-88
2021/04/19 01:18:56;;;;;;;19.27;8.68;;;;;;;;;;5092206;28;20541;-88
2021/04/19 01:21:22;;;;;;;18.63;8.73;;;;;;;;;;5092591;28;20059;-88
2021/04/19 01:23:49;;;;;;;21.98;10.10;;;;;;;;;;5092750;28;20119;-88
2021/04/19 01:26:15;;;;;;;26.55;10.50;;;;;;;;;;5092230;28;20149;-88
2021/04/19 01:28:41;;;;;;;21.17;9.85;;;;;;;;;;5093705;28;20107;-89
2021/04/19 01:31:07;;;;;;;18.75;9.45;;;;;;;;;;5094828;28;20432;-86
2021/04/19 01:33:33;;;;;;;25.52;10.52;;;;;;;;;;5093501;28;20026;-87
2021/04/19 01:35:59;;;;;;;26.98;11.23;;;;;;;;;;5094477;28;20035;-87
2021/04/19 01:38:26;;;;;;;25.90;11.45;;;;;;;;;;5095881;28;20484;-89
2021/04/19 01:40:56;;;;;;;25.77;11.35;;;;;;;;;;5096002;28;20376;-88
2021/04/19 01:43:23;;;;;;;23.63;11.00;;;;;;;;;;5095730;28;20036;-91
2021/04/19 01:45:50;;;;;;;30.42;11.98;;;;;;;;;;5095896;28;20525;-88
2021/04/19 01:48:17;;;;;;;29.73;12.43;;;;;;;;;;5095570;28;20028;-85
2021/04/19 01:50:43;;;;;;;25.25;11.57;;;;;;;;;;5095745;28;20024;-87
2021/04/19 01:53:09;;;;;;;28.90;12.15;;;;;;;;;;5095575;28;20480;-87
2021/04/19 01:55:36;;;;;;;33.70;12.38;;;;;;;;;;5095424;28;20395;-88
2021/04/19 01:58:04;;;;;;;28.60;12.10;;;;;;;;;;5095664;28;20032;-88
2021/04/19 02:00:33;;;;;;;27.00;11.30;;;;;;;;;;5095232;28;20024;-88
2021/04/19 02:03:04;;;;;;;29.33;12.20;;;;;;;;;;5095716;28;20507;-88
2021/04/19 02:05:33;;;;;;;30.02;12.98;;;;;;;;;;5095563;28;20055;-89
2021/04/19 02:08:05;;;;;;;28.45;12.18;;;;;;;;;;5095161;28;20400;-89
2021/04/19 02:10:31;;;;;;;27.58;12.02;;;;;;;;;;5095668;28;20020;-88
2021/04/19 02:13:03;;;;;;;27.63;11.98;;;;;;;;;;5095576;28;20469;-90
2021/04/19 02:15:37;;;;;;;33.85;12.88;;;;;;;;;;5095635;28;20114;-89
2021/04/19 02:18:15;;;;;;;31.50;13.05;;;;;;;;;;5095251;28;20032;-87
2021/04/19 02:20:54;;;;;;;27.10;12.05;;;;;;;;;;5095190;28;20547;-89
2021/04/19 02:23:41;;;;;;;31.13;12.88;;;;;;;;;;5095925;28;20028;-87
2021/04/19 02:26:10;;;;;;;29.88;12.90;;;;;;;;;;5095093;28;20141;-89
2021/04/19 02:28:37;;;;;;;31.88;13.27;;;;;;;;;;5094987;28;20080;-88
2021/04/19 02:31:06;;;;;;;32.33;12.73;;;;;;;;;;5094712;28;20046;-88
2021/04/19 02:33:34;;;;;;;29.25;12.73;;;;;;;;;;5094786;28;20097;-88
2021/04/19 02:36:00;;;;;;;33.08;13.40;;;;;;;;;;5094633;28;20028;-87
2021/04/19 02:38:29;;;;;;;34.15;12.93;;;;;;;;;;5094799;28;20036;-88
2021/04/19 02:40:56;;;;;;;34.85;14.48;;;;;;;;;;5094527;28;20077;-88
2021/04/19 02:43:23;;;;;;;31.13;13.88;;;;;;;;;;5094280;28;20034;-87
2021/04/19 02:45:51;;;;;;;30.23;12.57;;;;;;;;;;5094751;28;20039;-88
2021/04/19 02:48:17;;;;;;;32.70;13.25;;;;;;;;;;5093834;28;20024;-86
2021/04/19 02:50:44;;;;;;;26.23;11.45;;;;;;;;;;5094339;28;20028;-88
2021/04/19 02:53:10;;;;;;;24.23;11.40;;;;;;;;;;5094382;28;20128;-88
2021/04/19 02:55:37;;;;;;;25.83;12.68;;;;;;;;;;5094129;28;20064;-87
2021/04/19 02:58:05;;;;;;;25.50;11.73;;;;;;;;;;5095390;28;20024;-88
2021/04/19 03:00:36;;;;;;;33.45;12.57;;;;;;;;;;5093858;28;20019;-87
2021/04/19 03:03:06;;;;;;;27.90;11.68;;;;;;;;;;5094411;28;20028;-89
2021/04/19 03:05:32;;;;;;;26.73;11.60;;;;;;;;;;5093963;28;20028;-88
2021/04/19 03:08:03;;;;;;;28.25;11.65;;;;;;;;;;5094459;28;20097;-88
2021/04/19 03:10:33;;;;;;;26.33;12.07;;;;;;;;;;5094089;28;20060;-88
2021/04/19 03:13:00;;;;;;;26.48;12.00;;;;;;;;;;5074776;28;20021;-88
2021/04/19 03:15:34;;;;;;;27.30;11.57;;;;;;;;;;5095543;28;20480;-88
2021/04/19 03:18:02;;;;;;;27.90;12.02;;;;;;;;;;5094319;28;20036;-87
2021/04/19 03:20:42;;;;;;;27.48;11.82;;;;;;;;;;5094000;28;20030;-88
2021/04/19 03:23:09;;;;;;;30.38;12.20;;;;;;;;;;5093894;28;20035;-88
2021/04/19 03:25:36;;;;;;;29.83;12.98;;;;;;;;;;5093981;28;20020;-88
2021/04/19 03:28:02;;;;;;;26.58;12.55;;;;;;;;;;5093897;28;20059;-88
2021/04/19 03:30:28;;;;;;;28.08;13.00;;;;;;;;;;5093602;28;20470;-88
2021/04/19 03:32:55;;;;;;;28.30;11.75;;;;;;;;;;5093568;28;20480;-88
2021/04/19 03:35:33;;;;;;;35.42;14.38;;;;;;;;;;5094862;28;20085;-88
2021/04/19 03:38:00;;;;;;;29.08;12.80;;;;;;;;;;5093603;28;20072;-88
2021/04/19 03:40:28;;;;;;;26.85;11.70;;;;;;;;;;5093471;28;20069;-88
2021/04/19 03:42:56;;;;;;;25.75;11.38;;;;;;;;;;5093551;28;20068;-88
2021/04/19 03:45:24;;;;;;;33.47;11.88;;;;;;;;;;5093430;28;20216;-89
2021/04/19 03:47:51;;;;;;;32.63;12.80;;;;;;;;;;5094769;28;20144;-87
2021/04/19 03:50:19;;;;;;;27.65;11.27;;;;;;;;;;5093653;28;20028;-88
2021/04/19 03:52:49;;;;;;;27.65;12.10;;;;;;;;;;5093270;28;20052;-89
2021/04/19 03:55:15;;;;;;;33.60;13.23;;;;;;;;;;5093015;28;20031;-88
2021/04/19 03:57:42;;;;;;;27.95;11.88;;;;;;;;;;5092995;28;20491;-88
2021/04/19 04:00:11;;;;;;;28.02;12.57;;;;;;;;;;5093315;28;20024;-87
2021/04/19 04:02:38;;;;;;;28.15;12.02;;;;;;;;;;5089588;28;20048;-88
2021/04/19 04:05:05;;;;;;;25.92;12.00;;;;;;;;;;5089777;28;20052;-89
2021/04/19 04:07:32;;;;;;;27.40;12.60;;;;;;;;;;5089613;28;20362;-89
2021/04/19 04:09:59;;;;;;;28.30;12.02;;;;;;;;;;5089812;28;20089;-87
2021/04/19 04:12:25;;;;;;;25.50;11.18;;;;;;;;;;5074022;28;20059;-87
2021/04/19 04:14:52;;;;;;;33.22;12.82;;;;;;;;;;5056048;28;20025;-89
2021/04/19 04:17:19;;;;;;;30.73;11.93;;;;;;;;;;5074232;28;20542;-90
2021/04/19 04:19:45;;;;;;;26.85;11.73;;;;;;;;;;5089554;28;20020;-88
2021/04/19 04:22:11;;;;;;;30.20;13.07;;;;;;;;;;5089714;28;20032;-87
2021/04/19 04:24:38;;;;;;;26.70;11.88;;;;;;;;;;5089354;28;20021;-87
2021/04/19 04:27:05;;;;;;;26.58;11.57;;;;;;;;;;5089420;28;20028;-87
2021/04/19 04:29:31;;;;;;;27.45;12.05;;;;;;;;;;5089419;28;20469;-88
2021/04/19 04:31:57;;;;;;;31.08;13.55;;;;;;;;;;5073754;28;20069;-89
2021/04/19 04:34:24;;;;;;;28.60;11.82;;;;;;;;;;5073976;28;20031;-87
2021/04/19 04:36:50;;;;;;;28.73;12.20;;;;;;;;;;5089460;28;20040;-87
2021/04/19 04:39:16;;;;;;;27.92;12.20;;;;;;;;;;5089362;28;20020;-87
2021/04/19 04:41:42;;;;;;;28.52;12.77;;;;;;;;;;5089446;28;20048;-87
2021/04/19 04:44:11;;;;;;;27.30;12.43;;;;;;;;;;5089249;28;20036;-88
2021/04/19 04:46:45;;;;;;;33.88;12.65;;;;;;;;;;5089202;28;20032;-87
2021/04/19 04:49:16;;;;;;;32.83;13.25;;;;;;;;;;5074074;28;20062;-89
2021/04/19 04:51:46;;;;;;;33.95;13.52;;;;;;;;;;5089046;28;20086;-87
2021/04/19 04:54:15;;;;;;;31.25;13.88;;;;;;;;;;5089113;28;20040;-87
2021/04/19 04:56:42;;;;;;;33.95;13.18;;;;;;;;;;5088827;28;20037;-88
2021/04/19 04:59:10;;;;;;;34.97;13.15;;;;;;;;;;5089438;28;20031;-88
2021/04/19 05:01:36;;;;;;;34.47;13.25;;;;;;;;;;5088835;28;20062;-88
2021/04/19 05:04:03;;;;;;;36.78;14.13;;;;;;;;;;5073349;28;20024;-89
2021/04/19 05:06:30;;;;;;;31.73;12.40;;;;;;;;;;5088985;28;20052;-89
2021/04/19 05:08:57;;;;;;;29.10;13.20;;;;;;;;;;5089048;28;20024;-87
2021/04/19 05:11:23;;;;;;;27.10;12.85;;;;;;;;;;5092194;28;20556;-87
2021/04/19 05:13:49;;;;;;;35.92;13.60;;;;;;;;;;5092697;28;20081;-87
2021/04/19 05:16:25;;;;;;;37.80;14.25;;;;;;;;;;5076991;28;20062;-88
2021/04/19 05:18:51;;;;;;;30.70;13.73;;;;;;;;;;5092456;28;20029;-87
2021/04/19 05:21:18;;;;;;;28.50;13.77;;;;;;;;;;5097844;27;20023;-85
2021/04/19 05:23:44;;;;;;;31.33;13.52;;;;;;;;;;5096519;28;20016;-85
2021/04/19 05:26:10;;;;;;;30.83;13.98;;;;;;;;;;5115978;27;20028;-85
2021/04/19 05:28:37;;;;;;;35.75;14.45;;;;;;;;;;5096683;28;20080;-84
2021/04/19 05:31:03;;;;;;;32.75;13.52;;;;;;;;;;5118726;27;20024;-82
2021/04/19 05:33:29;;;;;;;30.92;13.40;;;;;;;;;;5109468;27;20474;-80
2021/04/19 05:35:57;;;;;;;30.90;14.07;;;;;;;;;;5076386;28;20034;-82
2021/04/19 05:38:23;;;;;;;36.65;14.98;;;;;;;;;;5096037;28;20511;-83
2021/04/19 05:40:50;;;;;;;32.60;14.13;;;;;;;;;;5096079;28;20115;-82
2021/04/19 05:43:16;;;;;;;31.73;13.23;;;;;;;;;;5098605;28;20031;-82
2021/04/19 05:45:43;;;;;;;33.15;14.63;;;;;;;;;;5116955;28;20487;-82
2021/04/19 05:48:09;;;;;;;30.58;12.95;;;;;;;;;;5098641;28;20038;-81
2021/04/19 05:50:35;;;;;;;32.92;13.40;;;;;;;;;;5098336;28;20051;-81
2021/04/19 05:53:02;;;;;;;36.80;15.60;;;;;;;;;;5097075;28;20031;-82
2021/04/19 05:55:30;;;;;;;36.92;15.57;;;;;;;;;;5096607;28;20024;-82
2021/04/19 05:58:05;;;;;;;33.13;15.23;;;;;;;;;;5094669;28;20039;-82
2021/04/19 06:00:44;;;;;;;36.10;13.65;;;;;;;;;;5096222;28;20428;-83
2021/04/19 06:03:17;;;;;;;33.40;14.00;;;;;;;;;;5116799;28;20028;-81
2021/04/19 06:05:43;;;;;;;;;;;;;;;;;;5098493;28;20114;-82
2021/04/19 06:08:45;;;;;;;33.63;15.07;;;;;;;;;;5098236;28;19987;-81
2021/04/19 06:11:14;;;;;;;37.28;16.08;;;;;;;;;;5033452;28;20032;-82
2021/04/19 06:13:42;;;;;;;32.47;14.77;;;;;;;;;;5083671;28;20036;-82
2021/04/19 06:16:09;;;;;;;34.13;14.85;;;;;;;;;;5098339;28;20043;-82
2021/04/19 06:18:36;;;;;;;34.13;14.55;;;;;;;;;;5097790;28;20122;-82
2021/04/19 06:21:02;;;;;;;32.60;14.77;;;;;;;;;;5115432;28;20024;-81
2021/04/19 06:23:29;;;;;;;24.25;12.27;;;;;;;;;;5097330;28;20475;-82
2021/04/19 06:25:55;;;;;;;30.77;16.00;;;;;;;;;;5097578;28;20024;-82
2021/04/19 06:28:24;;;;;;;33.70;15.05;;;;;;;;;;5097644;28;20387;-82
2021/04/19 06:30:50;;;;;;;34.40;17.40;;;;;;;;;;5128056;27;20027;-81
2021/04/19 06:33:17;;;;;;;28.85;13.15;;;;;;;;;;5136313;27;20027;-80
2021/04/19 06:35:44;;;;;;;29.55;13.52;;;;;;;;;;5133895;27;20019;-81
2021/04/19 06:38:10;;;;;;;31.83;12.82;;;;;;;;;;5106158;27;20118;-85
2021/04/19 06:40:38;;;;;;;28.73;13.27;;;;;;;;;;5100127;28;20023;-87
2021/04/19 06:43:05;;;;;;;32.42;14.48;;;;;;;;;;5097226;28;20375;-87
2021/04/19 06:45:33;;;;;;;25.88;12.70;;;;;;;;;;5098848;28;20056;-83
2021/04/19 06:48:01;;;;;;;29.17;14.18;;;;;;;;;;5097587;27;20023;-87
2021/04/19 06:50:27;;;;;;;29.20;13.75;;;;;;;;;;5118490;27;20118;-83
2021/04/19 06:52:54;;;;;;;29.55;12.77;;;;;;;;;;5119962;27;20024;-84
2021/04/19 06:55:20;;;;;;;23.65;11.93;;;;;;;;;;5136463;27;20027;-82
2021/04/19 06:57:52;;;;;;;29.08;12.80;;;;;;;;;;5117820;27;20028;-83
2021/04/19 07:00:19;;;;;;;23.98;11.82;;;;;;;;;;5117008;27;20031;-81
2021/04/19 07:02:49;;;;;;;26.20;11.77;;;;;;;;;;5078197;28;20039;-83
2021/04/19 07:05:26;;;;;;;24.55;11.60;;;;;;;;;;5097099;28;20384;-88
2021/04/19 07:08:03;;;;;;;30.20;12.52;;;;;;;;;;5078907;28;20036;-83
2021/04/19 07:10:30;;;;;;;23.08;11.32;;;;;;;;;;5077453;28;20379;-82
2021/04/19 07:12:57;;;;;;;26.25;12.32;;;;;;;;;;5077147;28;20020;-83
2021/04/19 07:15:24;;;;;;;24.30;12.02;;;;;;;;;;5077572;28;20028;-83
2021/04/19 07:17:50;;;;;;;23.75;12.40;;;;;;;;;;5076822;28;20042;-84
2021/04/19 07:20:17;;;;;;;24.58;11.65;;;;;;;;;;5076460;28;20024;-82
2021/04/19 07:22:43;;;;;;;26.88;12.63;;;;;;;;;;5076811;28;20419;-83
2021/04/19 07:25:10;;;;;;;24.17;11.77;;;;;;;;;;5076223;28;20472;-83
2021/04/19 07:27:40;;;;;;;27.60;12.90;;;;;;;;;;5094677;28;20028;-83
2021/04/19 07:30:07;;;;;;;22.70;11.50;;;;;;;;;;5094572;28;20055;-83
2021/04/19 07:32:34;;;;;;;27.95;13.52;;;;;;;;;;5075892;28;20133;-82
2021/04/19 07:35:00;;;;;;;25.23;11.75;;;;;;;;;;5094901;28;20035;-84
2021/04/19 07:37:26;;;;;;;22.33;12.38;;;;;;;;;;5082634;28;20024;-83
2021/04/19 07:39:53;;;;;;;23.85;11.55;;;;;;;;;;5096219;28;20027;-84
2021/04/19 07:42:19;;;;;;;21.20;10.85;;;;;;;;;;5096293;28;20034;-83
2021/04/19 07:44:49;;;;;;;25.17;10.15;;;;;;;;;;5096268;28;20491;-83
2021/04/19 07:47:18;;;;;;;23.08;10.27;;;;;;;;;;5096074;28;20474;-82
2021/04/19 07:49:57;;;;;;;21.50;10.70;;;;;;;;;;5096143;28;20448;-83
2021/04/19 07:52:23;;;;;;;22.33;10.93;;;;;;;;;;5096455;28;20409;-83
2021/04/19 07:55:04;;;;;;;24.40;10.80;;;;;;;;;;5096029;28;20034;-82
2021/04/19 07:57:30;;;;;;;25.27;10.35;;;;;;;;;;5114175;28;20032;-82
2021/04/19 07:59:56;;;;;;;20.00;9.90;;;;;;;;;;5096117;28;20089;-83
2021/04/19 08:02:22;;;;;;;21.45;10.25;;;;;;;;;;5095904;28;20421;-83
2021/04/19 08:04:52;;;;;;;21.35;9.52;;;;;;;;;;5095845;28;20023;-82
2021/04/19 08:07:28;;;;;;;16.38;8.48;;;;;;;;;;5097320;28;20055;-83
2021/04/19 08:09:54;;;;;;;21.60;9.98;;;;;;;;;;5093729;28;20024;-83
2021/04/19 08:12:30;;;;;;;21.00;8.65;;;;;;;;;;5098114;28;20110;-83
2021/04/19 08:14:56;;;;;;;19.70;9.80;;;;;;;;;;5097861;28;20024;-82
2021/04/19 08:17:26;;;;;;;17.83;8.50;;;;;;;;;;5095571;28;20028;-83
2021/04/19 08:19:53;;;;;;;16.70;8.40;;;;;;;;;;5096248;28;20028;-82
2021/04/19 08:22:20;;;;;;;14.50;7.85;;;;;;;;;;5095967;28;20031;-83
2021/04/19 08:24:47;;;;;;;19.95;9.23;;;;;;;;;;5095898;28;20541;-84
2021/04/19 08:27:24;;;;;;;18.23;8.68;;;;;;;;;;5095965;28;20068;-85
2021/04/19 08:29:50;;;;;;;15.20;8.57;;;;;;;;;;5095936;28;20475;-85
2021/04/19 08:32:17;;;;;;;17.98;7.75;;;;;;;;;;5114410;28;20468;-85
2021/04/19 08:34:44;;;;;;;22.50;9.20;;;;;;;;;;5114160;28;20027;-87
2021/04/19 08:37:11;;;;;;;18.17;9.57;;;;;;;;;;5109515;28;20036;-86
2021/04/19 08:39:39;;;;;;;19.33;9.38;;;;;;;;;;5075644;28;20024;-87
2021/04/19 08:42:06;;;;;;;18.02;8.77;;;;;;;;;;5075498;28;20024;-86
2021/04/19 08:44:36;;;;;;;16.10;8.23;;;;;;;;;;5075129;28;20468;-85
2021/04/19 08:47:03;;;;;;;17.67;9.38;;;;;;;;;;5097738;28;20020;-85
2021/04/19 08:49:30;;;;;;;18.48;9.00;;;;;;;;;;5079811;28;20028;-86
2021/04/19 08:51:56;;;;;;;17.45;9.15;;;;;;;;;;5079644;28;20024;-84
2021/04/19 08:54:23;;;;;;;15.52;8.00;;;;;;;;;;5079218;28;20119;-84
2021/04/19 08:56:49;;;;;;;16.38;7.70;;;;;;;;;;5097394;28;20040;-82
2021/04/19 08:59:16;;;;;;;15.52;8.88;;;;;;;;;;5097130;28;20059;-82
2021/04/19 09:01:43;;;;;;;13.98;7.57;;;;;;;;;;5108838;28;20051;-82
2021/04/19 09:04:10;;;;;;;19.48;9.02;;;;;;;;;;5102527;28;20029;-83
2021/04/19 09:06:39;;;;;;;17.00;9.13;;;;;;;;;;5107762;28;20087;-83
2021/04/19 09:09:06;;;;;;;17.48;9.45;;;;;;;;;;5101300;28;20028;-82
2021/04/19 09:11:32;;;;;;;17.95;8.75;;;;;;;;;;5099697;28;20468;-83
2021/04/19 09:14:10;;;;;;;18.27;9.70;;;;;;;;;;5100033;28;20058;-82
2021/04/19 09:16:41;;;;;;;18.15;8.55;;;;;;;;;;5099729;28;20112;-83
2021/04/19 09:19:08;;;;;;;18.05;8.88;;;;;;;;;;5099232;28;20020;-84
2021/04/19 09:21:41;;;;;;;17.05;8.65;;;;;;;;;;5099492;28;20027;-86
2021/04/19 09:24:08;;;;;;;17.38;8.88;;;;;;;;;;5117585;28;20482;-83
2021/04/19 09:26:55;;;;;;;18.77;8.98;;;;;;;;;;5081613;28;20032;-84
2021/04/19 09:29:27;;;;;;;18.77;8.98;;;;;;;;;;5078472;28;20028;-84
2021/04/19 09:32:07;;;;;;;15.80;9.15;;;;;;;;;;5078458;28;20078;-83
2021/04/19 09:34:36;;;;;;;17.13;9.05;;;;;;;;;;5078464;28;20036;-83
2021/04/19 09:37:02;;;;;;;20.60;9.73;;;;;;;;;;5080971;28;20024;-83
2021/04/19 09:39:47;;;;;;;17.85;9.02;;;;;;;;;;5104316;28;20053;-84
2021/04/19 09:42:13;;;;;;;16.63;8.85;;;;;;;;;;5122691;28;20417;-86
2021/04/19 09:44:53;;;;;;;16.25;8.93;;;;;;;;;;5098950;28;20371;-85
2021/04/19 09:47:38;;;;;;;17.65;8.73;;;;;;;;;;5098676;28;20440;-87
2021/04/19 09:50:05;;;;;;;17.88;9.35;;;;;;;;;;5098734;28;20053;-87
2021/04/19 09:52:31;;;;;;;18.67;9.90;;;;;;;;;;5099218;28;20023;-82
2021/04/19 09:55:02;;;;;;;19.13;9.07;;;;;;;;;;5098489;28;20023;-86
2021/04/19 09:57:28;;;;;;;20.75;10.27;;;;;;;;;;5117783;28;20031;-85
2021/04/19 09:59:54;;;;;;;22.33;11.10;;;;;;;;;;5098706;28;20073;-87
2021/04/19 10:02:21;;;;;;;17.98;9.68;;;;;;;;;;5098737;28;20055;-85
2021/04/19 10:04:48;;;;;;;16.75;8.77;;;;;;;;;;5098606;28;20406;-87
2021/04/19 10:07:15;;;;;;;20.23;9.32;;;;;;;;;;5099217;28;20028;-85
2021/04/19 10:09:44;;;;;;;21.77;9.60;;;;;;;;;;5099230;28;20479;-84
2021/04/19 10:12:13;;;;;;;21.88;10.32;;;;;;;;;;5105749;28;20074;-83
2021/04/19 10:14:40;;;;;;;18.08;9.30;;;;;;;;;;5097976;28;20475;-83
2021/04/19 10:17:16;;;;;;;18.15;9.18;;;;;;;;;;5116649;28;20325;-85
2021/04/19 10:19:43;;;;;;;14.88;7.85;;;;;;;;;;5098246;28;20050;-84
2021/04/19 10:22:10;;;;;;;18.98;8.43;;;;;;;;;;5098013;28;20042;-84
2021/04/19 10:24:48;;;;;;;14.90;7.78;;;;;;;;;;5098164;28;20502;-85
2021/04/19 10:27:22;;;;;;;14.98;7.75;;;;;;;;;;5098495;28;20024;-87
2021/04/19 10:29:48;;;;;;;17.90;7.93;;;;;;;;;;5098486;28;20030;-84
2021/04/19 10:32:26;;;;;;;17.35;8.50;;;;;;;;;;5098474;28;20059;-84
2021/04/19 10:34:52;;;;;;;17.45;8.60;;;;;;;;;;5098206;28;20433;-86
2021/04/19 10:37:18;;;;;;;17.10;9.57;;;;;;;;;;5091758;28;20035;-84
2021/04/19 10:39:45;;;;;;;18.38;9.45;;;;;;;;;;5077056;28;20027;-85
2021/04/19 10:42:11;;;;;;;20.50;8.77;;;;;;;;;;5095504;28;20042;-85
2021/04/19 10:44:42;;;;;;;18.20;8.32;;;;;;;;;;5076953;28;20024;-84
2021/04/19 10:47:09;;;;;;;17.52;8.85;;;;;;;;;;5077456;28;20036;-85
2021/04/19 10:49:36;;;;;;;18.05;9.00;;;;;;;;;;5095079;28;20102;-84
2021/04/19 10:52:04;;;;;;;17.42;8.43;;;;;;;;;;5077417;28;20023;-83
2021/04/19 10:54:31;;;;;;;17.17;8.25;;;;;;;;;;5077019;28;20020;-84
2021/04/19 10:56:58;;;;;;;12.60;7.50;;;;;;;;;;5076825;28;20036;-87
2021/04/19 10:59:25;;;;;;;16.80;8.23;;;;;;;;;;5076453;28;20024;-85
2021/04/19 11:02:05;;;;;;;18.27;8.32;;;;;;;;;;5089152;28;20169;-84
2021/04/19 11:04:32;;;;;;;20.55;8.38;;;;;;;;;;5097102;28;20042;-84
2021/04/19 11:07:16;;;;;;;13.10;7.07;;;;;;;;;;5096981;28;20023;-84
2021/04/19 11:09:42;;;;;;;18.60;9.32;;;;;;;;;;5096687;28;20043;-86
2021/04/19 11:12:09;;;;;;;15.82;8.98;;;;;;;;;;5115651;28;20036;-83
2021/04/19 11:14:36;;;;;;;17.20;8.98;;;;;;;;;;5097188;28;20020;-83
2021/04/19 11:17:06;;;;;;;17.38;8.95;;;;;;;;;;5115453;28;20040;-85
2021/04/19 11:19:42;;;;;;;16.92;9.52;;;;;;;;;;5096812;28;20023;-83
2021/04/19 11:22:29;;;;;;;17.45;9.38;;;;;;;;;;5096699;28;20097;-86
2021/04/19 11:24:56;;;;;;;17.38;9.18;;;;;;;;;;5096782;28;20399;-83
2021/04/19 11:27:23;;;;;;;18.23;9.35;;;;;;;;;;5096738;28;20163;-83
2021/04/19 11:29:49;;;;;;;21.08;9.20;;;;;;;;;;5096678;28;20483;-84
2021/04/19 11:32:36;;;;;;;17.58;9.35;;;;;;;;;;5096432;28;20137;-86
2021/04/19 11:35:03;;;;;;;17.70;9.60;;;;;;;;;;5096563;28;20070;-86
2021/04/19 11:37:37;;;;;;;21.30;9.43;;;;;;;;;;5103113;27;20398;-86
2021/04/19 11:40:07;;;;;;;18.90;10.07;;;;;;;;;;5116663;27;20023;-86
2021/04/19 11:42:35;;;;;;;20.42;10.15;;;;;;;;;;5117076;27;20409;-84
2021/04/19 11:45:03;;;;;;;19.30;10.10;;;;;;;;;;5116758;27;20479;-84
2021/04/19 11:47:29;;;;;;;17.52;9.20;;;;;;;;;;5116669;27;20035;-86
2021/04/19 11:49:56;;;;;;;13.90;8.05;;;;;;;;;;5116661;27;20403;-87
2021/04/19 11:52:23;;;;;;;14.48;7.85;;;;;;;;;;5116622;27;20023;-87
2021/04/19 11:54:49;;;;;;;15.73;8.57;;;;;;;;;;5116643;27;20038;-87
2021/04/19 11:57:15;;;;;;;16.48;8.38;;;;;;;;;;5117316;27;20054;-84
2021/04/19 11:59:42;;;;;;;16.00;8.30;;;;;;;;;;5134991;27;20015;-86
2021/04/19 12:02:09;;;;;;;14.43;7.45;;;;;;;;;;5116140;27;20046;-84
2021/04/19 12:04:35;;;;;;;14.18;7.07;;;;;;;;;;5116195;27;20043;-85
2021/04/19 12:07:02;;;;;;;14.13;6.95;;;;;;;;;;5118057;27;20114;-82
2021/04/19 12:09:28;;;;;;;14.57;7.22;;;;;;;;;;5119388;27;20027;-84
2021/04/19 12:11:55;;;;;;;12.07;5.40;;;;;;;;;;5117852;27;20034;-83
2021/04/19 12:14:26;;;;;;;11.10;6.50;;;;;;;;;;5119409;27;20027;-85
2021/04/19 12:16:52;;;;;;;16.23;7.72;;;;;;;;;;5123588;27;20030;-86
2021/04/19 12:19:19;;;;;;;14.05;6.72;;;;;;;;;;5116647;28;20119;-83
2021/04/19 12:21:46;;;;;;;13.82;7.70;;;;;;;;;;5116681;27;20367;-85
2021/04/19 12:24:12;;;;;;;18.58;9.82;;;;;;;;;;5117593;28;20390;-82
2021/04/19 12:26:38;;;;;;;23.52;10.35;;;;;;;;;;5117325;28;20019;-82
2021/04/19 12:29:05;;;;;;;19.75;9.45;;;;;;;;;;5116556;28;20491;-82
2021/04/19 12:31:31;;;;;;;20.58;9.93;;;;;;;;;;5117072;28;20047;-83
2021/04/19 12:33:57;;;;;;;18.40;9.60;;;;;;;;;;5117630;28;20058;-84
2021/04/19 12:36:23;;;;;;;17.73;9.57;;;;;;;;;;5134580;28;20027;-83
2021/04/19 12:38:50;;;;;;;20.83;9.32;;;;;;;;;;5098655;28;20024;-83
2021/04/19 12:41:16;;;;;;;18.88;9.15;;;;;;;;;;5114425;28;20019;-84
2021/04/19 12:43:42;;;;;;;19.95;9.30;;;;;;;;;;5095164;28;20034;-83
2021/04/19 12:46:08;;;;;;;20.27;9.68;;;;;;;;;;5095355;28;20028;-86
2021/04/19 12:48:34;;;;;;;20.20;9.73;;;;;;;;;;5095568;28;20472;-84
2021/04/19 12:51:00;;;;;;;18.65;9.38;;;;;;;;;;5098368;28;20024;-88
2021/04/19 12:53:27;;;;;;;19.42;8.93;;;;;;;;;;5107027;28;20020;-82
2021/04/19 12:55:53;;;;;;;21.15;9.82;;;;;;;;;;5095889;28;20495;-83
2021/04/19 12:58:19;;;;;;;18.55;9.70;;;;;;;;;;5095395;28;20096;-83
2021/04/19 13:00:45;;;;;;;22.85;10.15;;;;;;;;;;5095635;28;20067;-86
2021/04/19 13:03:11;;;;;;;17.15;9.30;;;;;;;;;;5095722;28;20020;-85
2021/04/19 13:05:41;;;;;;;17.67;9.23;;;;;;;;;;5095246;28;20023;-85
2021/04/19 13:08:08;;;;;;;18.55;8.85;;;;;;;;;;5095897;28;20383;-84
2021/04/19 13:10:34;;;;;;;18.15;9.18;;;;;;;;;;5096229;28;20119;-83
2021/04/19 13:13:00;;;;;;;15.68;8.80;;;;;;;;;;5095894;28;20019;-85
2021/04/19 13:15:26;;;;;;;21.65;10.00;;;;;;;;;;5096371;28;20077;-83
2021/04/19 13:17:53;;;;;;;20.83;10.15;;;;;;;;;;5096757;28;20055;-83
2021/04/19 13:20:20;;;;;;;20.42;10.00;;;;;;;;;;5114245;28;20519;-85
2021/04/19 13:22:46;;;;;;;18.17;9.32;;;;;;;;;;5094951;28;20028;-83
2021/04/19 13:25:13;;;;;;;21.02;10.43;;;;;;;;;;5113429;28;20169;-83
2021/04/19 13:27:48;;;;;;;20.38;10.25;;;;;;;;;;5095821;28;20407;-84
2021/04/19 13:30:15;;;;;;;21.67;10.80;;;;;;;;;;5095952;28;20016;-83
2021/04/19 13:32:41;;;;;;;21.35;10.95;;;;;;;;;;5118363;28;20038;-85
2021/04/19 13:35:08;;;;;;;19.02;10.43;;;;;;;;;;5099471;28;20027;-86
2021/04/19 13:37:35;;;;;;;21.23;10.55;;;;;;;;;;5102320;28;20032;-82
2021/04/19 13:40:01;;;;;;;22.65;11.00;;;;;;;;;;5117437;28;20027;-83
2021/04/19 13:42:27;;;;;;;24.80;11.55;;;;;;;;;;5117343;28;20037;-84
2021/04/19 13:44:53;;;;;;;22.63;11.25;;;;;;;;;;5117196;28;20026;-85
2021/04/19 13:47:19;;;;;;;22.05;10.93;;;;;;;;;;5102349;28;20028;-86
2021/04/19 13:49:45;;;;;;;17.58;10.20;;;;;;;;;;5117338;28;20456;-85
2021/04/19 13:52:11;;;;;;;21.58;10.57;;;;;;;;;;5098761;28;20027;-85
2021/04/19 13:54:38;;;;;;;20.23;10.13;;;;;;;;;;5098417;28;20380;-85
2021/04/19 13:57:04;;;;;;;20.40;10.43;;;;;;;;;;5098709;28;20035;-85
2021/04/19 13:59:30;;;;;;;18.33;9.88;;;;;;;;;;5098576;28;20458;-85
2021/04/19 14:01:57;;;;;;;18.67;9.75;;;;;;;;;;5098134;28;20075;-85
2021/04/19 14:04:23;;;;;;;18.65;10.30;;;;;;;;;;5098623;28;20114;-83
2021/04/19 14:06:49;;;;;;;17.77;9.32;;;;;;;;;;5117088;28;20027;-84
2021/04/19 14:09:22;;;;;;;20.33;10.25;;;;;;;;;;5099208;28;20034;-85
2021/04/19 14:11:48;;;;;;;18.02;9.77;;;;;;;;;;5117142;28;20020;-83
2021/04/19 14:14:14;;;;;;;18.17;9.55;;;;;;;;;;5098504;28;20036;-83
2021/04/19 14:16:46;;;;;;;21.38;9.40;;;;;;;;;;5099016;28;20028;-84
2021/04/19 14:19:16;;;;;;;12.20;7.20;;;;;;;;;;5099017;28;20028;-83
2021/04/19 14:21:43;;;;;;;12.10;6.20;;;;;;;;;;5099809;28;20019;-82
2021/04/19 14:24:09;;;;;;;9.85;5.40;;;;;;;;;;5098585;28;20364;-84
2021/04/19 14:26:36;;;;;;;13.07;6.40;;;;;;;;;;5097761;28;20054;-83
2021/04/19 14:29:02;;;;;;;11.02;6.00;;;;;;;;;;5098377;28;20055;-82